Time;durP1;ratioP1;P1;durP2;ratioP2;P2;SDS_P1;SDS_P2;PMS_P1;PMS_P2;Temp;Humidity;BMP_temperature;BMP_pressure;BME280_temperature;BME280_humidity;BME280_pressure;Samples;Min_cycle;Max_cycle;Signal;HPM_P1;HPM_P2
2023/08/24 00:02:01;;;;;;;5.68;4.13;;;;;;;20.83;62.58;101698.63;5015893;28;20022;-65
2023/08/24 00:04:28;;;;;;;9.85;5.18;;;;;;;20.53;64.78;101701.63;5011673;28;20091;-65
2023/08/24 00:06:53;;;;;;;7.82;5.70;;;;;;;20.18;66.19;101696.75;5012129;28;20505;-65
2023/08/24 00:09:18;;;;;;;7.15;5.55;;;;;;;20.31;65.88;101694.13;5017472;28;20022;-65
2023/08/24 00:11:44;;;;;;;8.95;6.22;;;;;;;20.27;66.36;101692.59;5010171;28;20385;-65
2023/08/24 00:14:09;;;;;;;6.90;5.72;;;;;;;20.18;65.70;101702.13;5015349;28;20034;-65
2023/08/24 00:16:34;;;;;;;6.15;4.95;;;;;;;20.30;65.06;101700.47;5010033;28;20058;-65
2023/08/24 00:19:00;;;;;;;8.90;5.53;;;;;;;20.37;65.45;101707.97;5012150;28;20083;-65
2023/08/24 00:21:25;;;;;;;7.90;5.32;;;;;;;20.42;64.92;101707.66;5007342;28;20052;-65
2023/08/24 00:23:51;;;;;;;7.82;6.18;;;;;;;20.25;65.89;101702.59;5008678;28;20100;-65
2023/08/24 00:26:19;;;;;;;6.05;5.40;;;;;;;19.93;66.61;101684.13;5010730;28;20060;-65
2023/08/24 00:28:45;;;;;;;6.40;5.80;;;;;;;19.93;66.80;101684.13;5006088;28;20384;-65
2023/08/24 00:31:11;;;;;;;7.10;5.53;;;;;;;20.11;68.04;101680.22;5010394;28;20025;-66
2023/08/24 00:33:37;;;;;;;6.65;4.78;;;;;;;20.30;65.41;101679.84;5008100;28;20080;-66
2023/08/24 00:36:02;;;;;;;7.47;5.38;;;;;;;20.39;63.94;101687.28;5001781;28;20025;-66
2023/08/24 00:38:28;;;;;;;7.07;5.40;;;;;;;20.41;64.02;101692.53;5009699;28;20104;-65
2023/08/24 00:40:53;;;;;;;6.78;5.07;;;;;;;20.29;64.87;101682.63;5008148;28;20065;-66
2023/08/24 00:43:23;;;;;;;7.07;5.18;;;;;;;20.33;64.56;101687.69;5005269;28;20085;-65
2023/08/24 00:45:50;;;;;;;5.70;5.13;;;;;;;20.35;64.22;101685.75;5008078;28;20084;-65
2023/08/24 00:48:15;;;;;;;6.35;5.30;;;;;;;20.39;65.17;101683.72;5006635;28;20037;-65
2023/08/24 00:50:41;;;;;;;7.05;5.93;;;;;;;20.37;64.61;101672.22;5013359;28;20021;-65
2023/08/24 00:53:06;;;;;;;7.07;5.25;;;;;;;20.35;63.36;101664.25;5009000;28;20026;-66
2023/08/24 00:55:31;;;;;;;7.50;5.25;;;;;;;20.34;63.02;101664.38;5009933;28;20022;-65
2023/08/24 00:57:58;;;;;;;7.50;5.13;;;;;;;20.30;62.96;101677.16;5001269;28;20449;-65
2023/08/24 01:00:24;;;;;;;6.15;5.18;;;;;;;20.30;63.10;101671.78;5008806;28;20061;-65
2023/08/24 01:02:49;;;;;;;8.57;5.50;;;;;;;20.32;62.51;101667.16;5006028;28;20054;-64
2023/08/24 01:05:14;;;;;;;6.82;5.43;;;;;;;20.37;63.48;101669.53;5012568;28;20029;-65
2023/08/24 01:07:40;;;;;;;6.88;6.10;;;;;;;20.24;64.75;101668.66;5012122;28;20053;-64
2023/08/24 01:10:07;;;;;;;7.28;5.30;;;;;;;20.19;65.35;101677.03;5018541;28;20194;-65
2023/08/24 01:13:00;;;;;;;7.15;6.25;;;;;;;20.09;65.69;101668.69;5009501;28;20054;-65
2023/08/24 01:15:37;;;;;;;7.75;5.85;;;;;;;20.11;65.85;101669.47;5006133;28;20041;-65
2023/08/24 01:18:05;;;;;;;8.52;6.05;;;;;;;20.09;65.87;101663.34;5007392;28;20033;-64
2023/08/24 01:20:33;;;;;;;7.90;6.03;;;;;;;20.08;66.26;101668.81;5005361;28;20513;-64
2023/08/24 01:23:31;;;;;;;7.28;6.38;;;;;;;20.00;66.12;101665.78;5012180;28;20025;-65
2023/08/24 01:26:16;;;;;;;10.38;6.30;;;;;;;19.81;66.68;101664.31;5009735;28;20032;-64
2023/08/24 01:28:43;;;;;;;8.82;6.35;;;;;;;19.80;68.05;101659.06;5006751;28;20061;-64
2023/08/24 01:31:09;;;;;;;6.63;5.45;;;;;;;19.93;67.06;101653.75;5006484;28;20021;-65
2023/08/24 01:33:34;;;;;;;7.50;5.97;;;;;;;19.94;67.34;101652.78;5008641;28;20034;-65
2023/08/24 01:36:00;;;;;;;9.23;6.00;;;;;;;20.03;67.26;101658.38;5002629;28;20026;-65
2023/08/24 01:38:26;;;;;;;9.55;6.90;;;;;;;19.95;67.97;101658.03;5008071;28;20017;-65
2023/08/24 01:41:42;;;;;;;9.45;6.80;;;;;;;19.93;67.28;101662.66;5003566;28;20512;-65
2023/08/24 01:44:12;;;;;;;9.63;6.53;;;;;;;19.78;68.53;101658.31;4990097;28;20119;-65
2023/08/24 01:46:39;;;;;;;9.70;6.65;;;;;;;19.94;68.27;101656.31;5010454;28;20033;-66
2023/08/24 01:49:07;;;;;;;9.35;6.40;;;;;;;20.05;67.73;101658.25;5001847;28;20033;-66
2023/08/24 01:51:34;;;;;;;8.80;6.13;;;;;;;20.09;67.08;101660.66;5007459;28;20061;-66
2023/08/24 01:54:00;;;;;;;7.00;5.65;;;;;;;20.13;67.27;101655.94;5009534;28;20029;-65
2023/08/24 01:56:25;;;;;;;6.35;5.75;;;;;;;20.22;68.97;101649.94;5006999;28;20039;-65
2023/08/24 01:58:51;;;;;;;7.22;5.70;;;;;;;20.25;66.71;101663.19;5006409;28;20160;-65
2023/08/24 02:01:16;;;;;;;9.93;6.25;;;;;;;20.28;66.92;101662.94;5005309;28;20022;-65
2023/08/24 02:03:41;;;;;;;10.10;6.32;;;;;;;20.38;66.22;101673.94;5010011;28;20026;-65
2023/08/24 02:06:07;;;;;;;7.57;5.93;;;;;;;20.43;65.94;101676.31;5006294;28;20108;-65
2023/08/24 02:08:33;;;;;;;10.15;6.40;;;;;;;20.43;65.98;101671.81;5004895;28;20120;-65
2023/08/24 02:10:58;;;;;;;8.65;6.35;;;;;;;20.47;66.46;101672.44;5007579;28;20511;-65
2023/08/24 02:13:24;;;;;;;11.02;6.25;;;;;;;20.47;67.67;101668.00;5003599;28;20688;-65
2023/08/24 02:15:49;;;;;;;9.38;6.47;;;;;;;20.47;66.17;101654.56;5009246;28;20080;-64
2023/08/24 02:18:14;;;;;;;8.30;6.45;;;;;;;20.42;67.05;101643.22;5006723;28;20030;-65
2023/08/24 02:20:40;;;;;;;8.18;6.72;;;;;;;20.29;67.61;101640.53;5007541;28;20136;-65
2023/08/24 02:23:05;;;;;;;7.43;5.80;;;;;;;20.12;68.04;101641.66;5011033;28;20099;-64
2023/08/24 02:25:31;;;;;;;6.70;5.85;;;;;;;20.08;68.00;101655.38;5007893;28;20057;-65
2023/08/24 02:27:57;;;;;;;8.38;5.90;;;;;;;20.03;67.94;101649.47;5017480;28;20392;-65
2023/08/24 02:30:22;;;;;;;9.98;6.30;;;;;;;20.10;67.19;101646.28;5009127;28;20021;-65
2023/08/24 02:32:47;;;;;;;7.93;6.55;;;;;;;20.12;68.42;101643.47;5013359;28;20495;-65
2023/08/24 02:35:13;;;;;;;8.73;5.88;;;;;;;20.12;68.51;101648.84;5012713;28;20029;-65
2023/08/24 02:37:38;;;;;;;7.30;6.15;;;;;;;20.17;67.77;101662.81;5008084;28;20030;-65
2023/08/24 02:40:05;;;;;;;7.93;5.97;;;;;;;20.24;67.47;101653.41;5008361;28;20038;-65
2023/08/24 02:42:31;;;;;;;6.53;5.88;;;;;;;20.29;67.60;101653.94;5010504;28;20026;-65
2023/08/24 02:44:57;;;;;;;8.48;6.93;;;;;;;20.27;67.88;101638.91;4985792;28;20038;-65
2023/08/24 02:47:22;;;;;;;11.00;6.57;;;;;;;20.09;69.20;101627.56;5006092;28;20046;-65
2023/08/24 02:49:47;;;;;;;7.25;6.07;;;;;;;19.85;70.47;101613.97;5010231;28;20041;-65
2023/08/24 02:52:13;;;;;;;10.13;6.50;;;;;;;19.56;71.79;101600.66;5011080;28;20087;-65
2023/08/24 02:54:38;;;;;;;6.82;6.13;;;;;;;19.41;72.27;101606.16;5009977;28;20025;-65
2023/08/24 02:57:03;;;;;;;8.00;6.97;;;;;;;19.46;71.91;101598.69;5011266;28;20033;-65
2023/08/24 02:59:28;;;;;;;7.38;6.50;;;;;;;19.65;72.06;101590.31;5007027;28;20032;-65
2023/08/24 03:01:54;;;;;;;11.52;7.50;;;;;;;19.67;72.89;101585.69;5003869;28;20109;-65
2023/08/24 03:04:19;;;;;;;11.63;7.38;;;;;;;19.53;72.70;101574.00;5014509;28;20048;-66
2023/08/24 03:06:44;;;;;;;9.68;7.82;;;;;;;19.37;73.68;101568.81;5009778;28;20046;-66
2023/08/24 03:09:10;;;;;;;13.43;8.23;;;;;;;19.24;73.86;101557.16;5008580;28;20439;-65
2023/08/24 03:11:35;;;;;;;11.98;7.95;;;;;;;19.30;73.87;101531.75;5007803;28;20434;-65
2023/08/24 03:14:00;;;;;;;9.95;8.18;;;;;;;19.33;73.29;101510.97;5010305;28;20497;-65
2023/08/24 03:16:26;;;;;;;9.80;8.50;;;;;;;19.37;73.83;101501.78;5010069;28;20010;-64
2023/08/24 03:18:51;;;;;;;12.45;8.57;;;;;;;19.29;75.18;101498.75;5012689;28;20029;-65
2023/08/24 03:21:16;;;;;;;12.82;9.13;;;;;;;19.21;75.61;101500.19;5016062;28;20029;-65
2023/08/24 03:23:42;;;;;;;14.85;9.63;;;;;;;19.30;75.09;101508.50;5010529;28;20077;-65
2023/08/24 03:26:07;;;;;;;12.57;8.98;;;;;;;19.31;75.31;101507.56;5007505;28;20606;-64
2023/08/24 03:28:32;;;;;;;13.25;9.52;;;;;;;19.28;75.24;101494.34;5010847;28;20056;-65
2023/08/24 03:30:58;;;;;;;15.15;10.38;;;;;;;19.23;76.50;101475.03;5006914;28;20074;-65
2023/08/24 03:33:23;;;;;;;13.98;9.85;;;;;;;19.29;76.08;101471.06;5010218;28;20026;-65
2023/08/24 03:35:49;;;;;;;13.85;10.40;;;;;;;19.19;76.93;101462.78;5012602;28;20033;-65
2023/08/24 03:38:14;;;;;;;13.95;10.60;;;;;;;19.24;76.82;101466.00;5012875;28;20448;-65
2023/08/24 03:40:40;;;;;;;14.43;10.50;;;;;;;19.24;76.77;101455.28;5011429;28;20501;-65
2023/08/24 03:43:05;;;;;;;14.32;11.10;;;;;;;19.23;76.98;101447.34;5015572;28;20495;-65
2023/08/24 03:45:31;;;;;;;15.40;10.98;;;;;;;19.32;76.49;101452.09;5010968;28;20104;-65
2023/08/24 03:47:56;;;;;;;16.20;11.52;;;;;;;19.42;77.07;101447.84;5007417;28;20034;-65
2023/08/24 03:50:24;;;;;;;16.80;12.45;;;;;;;19.47;76.80;101448.38;5012696;28;20382;-65
2023/08/24 03:52:50;;;;;;;16.88;11.15;;;;;;;19.58;76.61;101461.06;5013429;28;20499;-64
2023/08/24 03:55:16;;;;;;;15.38;11.95;;;;;;;19.59;76.69;101463.66;5011307;28;20497;-65
2023/08/24 03:57:41;;;;;;;18.20;11.90;;;;;;;19.62;75.95;101463.44;5009293;28;21179;-65
2023/08/24 04:00:11;;;;;;;15.25;11.98;;;;;;;19.71;76.56;101475.38;5009565;28;20544;-65
2023/08/24 04:02:37;;;;;;;17.42;11.07;;;;;;;19.82;76.25;101459.44;5009900;28;20484;-65
2023/08/24 04:05:03;;;;;;;19.25;13.05;;;;;;;19.84;75.83;101468.22;5013882;28;20044;-65
2023/08/24 04:07:28;;;;;;;16.83;12.80;;;;;;;19.88;75.86;101485.81;5017867;28;20445;-65
2023/08/24 04:09:54;;;;;;;18.98;12.60;;;;;;;19.92;76.20;101483.81;4989480;28;20349;-65
2023/08/24 04:12:19;;;;;;;16.45;13.43;;;;;;;19.90;76.00;101493.75;5007328;28;20374;-65
2023/08/24 04:14:44;;;;;;;17.10;12.20;;;;;;;19.93;74.72;101474.78;5006367;28;20034;-65
2023/08/24 04:17:09;;;;;;;15.90;12.18;;;;;;;19.96;74.52;101474.56;5006990;28;20061;-65
2023/08/24 04:19:38;;;;;;;18.27;12.50;;;;;;;19.97;74.13;101478.13;5004413;28;20489;-65
2023/08/24 04:22:03;;;;;;;14.48;12.40;;;;;;;19.97;74.18;101475.44;5007574;28;20025;-65
2023/08/24 04:24:28;;;;;;;15.18;12.10;;;;;;;19.99;74.46;101477.03;5014002;28;20053;-65
2023/08/24 04:26:54;;;;;;;15.45;12.35;;;;;;;19.97;74.91;101478.97;5017280;28;20086;-65
2023/08/24 04:29:19;;;;;;;17.08;12.02;;;;;;;19.96;74.02;101476.38;5010485;28;20032;-66
2023/08/24 04:31:44;;;;;;;18.85;12.25;;;;;;;19.99;73.78;101481.53;5003750;28;20022;-65
2023/08/24 04:34:11;;;;;;;16.02;12.80;;;;;;;19.99;73.97;101486.91;5009648;28;20022;-65
2023/08/24 04:36:36;;;;;;;17.02;12.35;;;;;;;20.00;74.69;101486.78;5007069;28;20037;-65
2023/08/24 04:39:02;;;;;;;18.83;13.45;;;;;;;19.96;74.82;101488.00;5011055;28;20037;-66
2023/08/24 04:41:27;;;;;;;19.55;13.98;;;;;;;19.88;75.78;101488.50;5006707;28;20071;-65
2023/08/24 04:43:52;;;;;;;18.52;13.75;;;;;;;19.70;76.27;101496.97;5006404;28;20029;-65
2023/08/24 04:46:18;;;;;;;19.67;12.90;;;;;;;19.62;76.10;101489.41;5006198;28;20033;-65
2023/08/24 04:48:43;;;;;;;18.65;14.32;;;;;;;19.65;76.52;101491.06;5006578;28;20034;-65
2023/08/24 04:51:08;;;;;;;18.15;14.30;;;;;;;19.55;77.75;101488.97;5011110;28;20732;-65
2023/08/24 04:53:34;;;;;;;19.73;14.50;;;;;;;19.48;77.77;101487.63;5008507;28;20040;-65
2023/08/24 04:55:59;;;;;;;20.48;13.98;;;;;;;19.53;76.87;101479.28;5011846;28;20358;-65
2023/08/24 04:58:25;;;;;;;20.40;14.38;;;;;;;19.59;77.11;101485.09;5015171;28;20030;-65
2023/08/24 05:00:50;;;;;;;18.55;14.80;;;;;;;19.56;77.49;101474.56;5016994;28;20022;-65
2023/08/24 05:03:16;;;;;;;19.98;15.35;;;;;;;19.58;76.96;101483.41;5014219;28;20376;-65
2023/08/24 05:05:41;;;;;;;16.80;12.95;;;;;;;19.64;76.33;101481.28;5009588;28;20351;-65
2023/08/24 05:08:09;;;;;;;20.05;14.73;;;;;;;19.66;76.22;101477.53;5012506;28;20076;-65
2023/08/24 05:10:35;;;;;;;18.30;13.80;;;;;;;19.61;76.07;101482.34;5017798;28;20301;-66
2023/08/24 05:13:00;;;;;;;21.20;15.75;;;;;;;19.53;76.53;101485.50;5012210;28;20030;-65
2023/08/24 05:15:26;;;;;;;19.05;15.55;;;;;;;19.50;76.26;101484.88;5008590;28;20039;-66
2023/08/24 05:17:59;;;;;;;20.83;14.05;;;;;;;19.51;76.00;101484.75;5009682;28;20502;-66
2023/08/24 05:20:27;;;;;;;17.30;14.18;;;;;;;19.56;75.98;101488.00;5007665;28;20477;-65
2023/08/24 05:22:54;;;;;;;18.65;14.10;;;;;;;19.62;75.84;101486.75;5007530;28;20469;-66
2023/08/24 05:25:20;;;;;;;18.85;14.35;;;;;;;19.68;75.51;101477.41;5005926;28;20496;-65
2023/08/24 05:27:45;;;;;;;19.10;15.18;;;;;;;19.65;76.49;101488.38;5002374;28;20046;-65
2023/08/24 05:30:11;;;;;;;24.52;15.10;;;;;;;19.65;75.73;101478.50;5010975;28;20139;-65
2023/08/24 05:32:38;;;;;;;18.50;15.25;;;;;;;19.71;76.27;101472.69;5004356;28;20029;-65
2023/08/24 05:35:05;;;;;;;18.88;15.23;;;;;;;19.76;76.41;101470.56;5012291;28;20099;-66
2023/08/24 05:37:30;;;;;;;20.73;15.90;;;;;;;19.75;76.42;101470.69;5003887;28;20026;-65
2023/08/24 05:39:55;;;;;;;23.08;16.40;;;;;;;19.71;77.05;101471.84;5007343;28;20079;-65
2023/08/24 05:42:20;;;;;;;22.42;16.95;;;;;;;19.70;77.08;101462.09;5007988;28;20035;-65
2023/08/24 05:44:46;;;;;;;21.20;17.58;;;;;;;19.68;77.07;101456.84;5003539;28;20084;-65
2023/08/24 05:47:11;;;;;;;23.67;16.88;;;;;;;19.76;77.70;101453.59;5011449;28;20038;-65
2023/08/24 05:49:36;;;;;;;20.63;16.73;;;;;;;19.77;77.50;101449.94;5007638;28;20030;-65
2023/08/24 05:52:02;;;;;;;21.60;18.02;;;;;;;19.78;77.65;101452.56;5003228;28;20555;-65
2023/08/24 05:54:27;;;;;;;21.30;16.88;;;;;;;19.86;76.78;101441.25;5004081;28;20117;-65
2023/08/24 05:56:52;;;;;;;24.33;17.35;;;;;;;19.87;76.75;101451.91;5007675;28;20029;-65
2023/08/24 05:59:18;;;;;;;20.23;15.77;;;;;;;19.92;76.39;101453.41;5007844;28;20025;-66
2023/08/24 06:01:43;;;;;;;20.73;17.65;;;;;;;19.90;77.38;101439.22;5004659;28;20041;-65
2023/08/24 06:04:09;;;;;;;21.45;16.30;;;;;;;20.01;76.51;101432.16;5008731;28;20032;-65
2023/08/24 06:06:37;;;;;;;23.00;17.20;;;;;;;20.06;76.53;101415.72;5009269;28;20053;-65
2023/08/24 06:09:06;;;;;;;23.00;16.27;;;;;;;20.05;77.02;101403.25;5004255;28;20040;-65
2023/08/24 06:11:32;;;;;;;21.00;18.33;;;;;;;19.99;77.73;101404.56;5005318;28;20030;-65
2023/08/24 06:13:58;;;;;;;20.27;16.15;;;;;;;20.02;76.73;101395.44;5005868;28;20117;-66
2023/08/24 06:16:23;;;;;;;25.50;18.45;;;;;;;20.05;77.35;101387.16;5001285;28;20128;-65
2023/08/24 06:18:49;;;;;;;23.40;17.17;;;;;;;20.12;77.46;101369.66;5005917;28;20017;-65
2023/08/24 06:21:15;;;;;;;20.55;16.83;;;;;;;20.25;76.98;101375.00;5002426;28;20033;-65
2023/08/24 06:23:40;;;;;;;21.13;15.40;;;;;;;20.34;75.05;101383.25;5008516;28;20394;-65
2023/08/24 06:26:05;;;;;;;21.73;15.93;;;;;;;20.45;75.51;101392.34;5001978;28;20405;-65
2023/08/24 06:28:31;;;;;;;21.10;16.45;;;;;;;20.54;75.96;101399.75;5009574;28;20164;-65
2023/08/24 06:30:56;;;;;;;24.38;18.02;;;;;;;20.61;75.41;101403.69;5001003;28;20351;-65
2023/08/24 06:33:27;;;;;;;21.15;16.35;;;;;;;20.72;75.32;101408.31;5007144;28;20044;-65
2023/08/24 06:35:52;;;;;;;25.73;17.33;;;;;;;20.81;74.81;101411.16;5011142;28;20033;-65
2023/08/24 06:38:17;;;;;;;24.42;18.50;;;;;;;20.82;75.06;101410.19;5010966;28;20428;-65
2023/08/24 06:40:42;;;;;;;23.30;17.27;;;;;;;20.87;73.89;101408.03;5007501;28;20331;-65
2023/08/24 06:43:08;;;;;;;22.15;17.13;;;;;;;20.89;73.04;101406.09;5006044;28;20025;-65
2023/08/24 06:45:33;;;;;;;18.77;16.25;;;;;;;20.97;73.56;101404.66;5005264;28;20424;-65
2023/08/24 06:47:58;;;;;;;21.40;16.25;;;;;;;21.08;72.35;101404.72;5002522;28;20036;-65
2023/08/24 06:50:23;;;;;;;19.98;16.27;;;;;;;21.19;72.19;101396.69;4999925;28;20033;-65
2023/08/24 06:52:49;;;;;;;20.65;16.23;;;;;;;21.27;72.43;101402.34;5001986;28;20493;-65
2023/08/24 06:55:14;;;;;;;20.52;15.43;;;;;;;21.40;71.64;101404.97;5002432;28;20025;-65
2023/08/24 06:57:40;;;;;;;18.63;15.45;;;;;;;21.47;71.05;101405.38;5013030;28;20176;-65
2023/08/24 07:00:07;;;;;;;21.10;15.70;;;;;;;21.54;71.18;101409.28;5009988;28;20409;-65
2023/08/24 07:02:33;;;;;;;20.02;15.52;;;;;;;21.66;71.36;101402.97;5002192;28;20048;-65
2023/08/24 07:04:59;;;;;;;19.13;14.52;;;;;;;21.80;71.00;101396.50;5012180;28;20022;-65
2023/08/24 07:07:24;;;;;;;20.77;14.70;;;;;;;21.91;70.14;101397.34;5003933;28;20485;-67
2023/08/24 07:09:49;;;;;;;18.92;15.20;;;;;;;22.03;70.36;101400.06;5006438;28;20051;-67
2023/08/24 07:12:15;;;;;;;17.67;15.82;;;;;;;22.16;69.54;101395.44;5009216;28;20097;-67
2023/08/24 07:14:40;;;;;;;18.95;15.45;;;;;;;22.22;69.29;101384.16;5008907;28;20029;-67
2023/08/24 07:17:06;;;;;;;16.92;14.20;;;;;;;22.31;68.48;101385.28;5014716;28;20091;-67
2023/08/24 07:19:31;;;;;;;20.13;14.95;;;;;;;22.47;66.72;101384.88;5012394;28;20053;-67
2023/08/24 07:21:57;;;;;;;22.58;15.38;;;;;;;22.62;66.96;101386.34;5006592;28;20033;-67
2023/08/24 07:24:26;;;;;;;19.90;14.25;;;;;;;22.79;67.99;101377.69;5010306;28;20053;-67
2023/08/24 07:26:52;;;;;;;22.65;15.45;;;;;;;22.91;65.61;101365.06;5011208;28;20048;-67
2023/08/24 07:29:17;;;;;;;20.10;14.93;;;;;;;23.00;66.13;101376.94;5011621;28;20035;-67
2023/08/24 07:31:42;;;;;;;19.85;14.30;;;;;;;23.07;65.22;101384.34;5005711;28;20103;-67
2023/08/24 07:34:08;;;;;;;17.67;15.02;;;;;;;23.23;66.03;101381.22;4994640;28;20045;-67
2023/08/24 07:36:33;;;;;;;20.08;14.60;;;;;;;23.54;62.85;101378.59;5004212;28;20482;-67
2023/08/24 07:38:59;;;;;;;18.38;14.43;;;;;;;23.77;63.01;101369.38;5006665;28;20030;-67
2023/08/24 07:41:24;;;;;;;16.25;14.07;;;;;;;24.03;62.80;101372.50;4990706;28;20025;-67
2023/08/24 07:43:49;;;;;;;18.23;13.68;;;;;;;24.21;60.55;101367.31;5011836;28;20285;-67
2023/08/24 07:46:14;;;;;;;20.67;14.10;;;;;;;24.42;60.81;101367.25;5007827;28;20042;-67
2023/08/24 07:48:40;;;;;;;16.70;13.65;;;;;;;24.77;61.96;101365.88;5010868;28;20634;-67
2023/08/24 07:51:05;;;;;;;18.20;13.88;;;;;;;24.87;59.16;101362.19;5008688;28;20026;-67
2023/08/24 07:53:32;;;;;;;18.38;13.93;;;;;;;25.02;58.28;101357.19;5011099;28;20365;-67
2023/08/24 07:55:58;;;;;;;13.90;11.68;;;;;;;25.33;56.03;101366.03;5006641;28;20041;-67
2023/08/24 07:58:24;;;;;;;17.10;12.00;;;;;;;25.58;57.01;101364.56;5015943;28;20029;-67
2023/08/24 08:00:51;;;;;;;17.42;12.88;;;;;;;25.52;56.15;101365.16;5005599;28;20030;-66
2023/08/24 08:03:17;;;;;;;17.13;12.13;;;;;;;25.68;57.08;101375.38;5012605;28;20128;-66
2023/08/24 08:05:43;;;;;;;16.48;13.00;;;;;;;25.81;56.27;101373.22;5008892;28;20135;-67
2023/08/24 08:08:08;;;;;;;18.83;12.23;;;;;;;26.13;54.21;101375.53;5007422;28;20497;-67
2023/08/24 08:10:33;;;;;;;16.00;11.77;;;;;;;26.27;53.80;101366.03;5009107;28;20555;-67
2023/08/24 08:12:59;;;;;;;14.25;11.55;;;;;;;26.45;54.32;101364.25;5006817;28;20033;-66
2023/08/24 08:15:24;;;;;;;19.80;12.40;;;;;;;26.53;51.94;101368.06;5005191;28;20092;-68
2023/08/24 08:17:51;;;;;;;14.55;11.43;;;;;;;26.66;51.94;101373.97;5005520;28;20307;-67
2023/08/24 08:20:16;;;;;;;16.38;10.98;;;;;;;26.70;53.82;101362.66;5005994;28;20132;-67
2023/08/24 08:22:41;;;;;;;15.23;11.77;;;;;;;27.11;53.28;101363.06;5004568;28;20030;-67
2023/08/24 08:25:07;;;;;;;16.65;11.35;;;;;;;27.09;51.63;101369.66;5013571;28;20056;-66
2023/08/24 08:27:33;;;;;;;12.60;11.05;;;;;;;27.29;51.47;101365.78;4998494;28;20083;-66
2023/08/24 08:29:58;;;;;;;16.90;10.38;;;;;;;27.58;51.88;101351.03;5008888;28;20086;-67
2023/08/24 08:32:26;;;;;;;16.27;10.90;;;;;;;27.87;50.96;101343.41;5015560;28;20029;-67
2023/08/24 08:34:53;;;;;;;13.55;10.13;;;;;;;28.13;50.54;101340.66;5002612;28;20038;-67
2023/08/24 08:37:18;;;;;;;14.73;10.30;;;;;;;28.36;48.69;101330.06;4999894;28;20026;-66
2023/08/24 08:39:43;;;;;;;15.23;10.27;;;;;;;28.21;49.51;101318.94;5010276;28;20060;-67
2023/08/24 08:42:14;;;;;;;16.67;11.32;;;;;;;28.04;50.60;101324.47;5014012;28;20300;-67
2023/08/24 08:44:41;;;;;;;14.82;10.57;;;;;;;28.11;49.96;101318.19;5017713;28;20128;-66
2023/08/24 08:47:08;;;;;;;13.07;10.52;;;;;;;28.24;50.13;101309.59;5009022;28;20435;-66
2023/08/24 08:49:35;;;;;;;15.02;11.82;;;;;;;28.12;50.07;101300.00;5005187;28;20034;-67
2023/08/24 08:52:01;;;;;;;18.27;12.38;;;;;;;28.12;50.53;101291.84;5008334;28;20500;-66
2023/08/24 08:54:27;;;;;;;17.95;12.68;;;;;;;27.99;51.20;101288.78;5009879;28;20078;-66
2023/08/24 08:56:52;;;;;;;17.10;13.30;;;;;;;28.05;50.14;101283.53;5001623;28;20465;-66
2023/08/24 08:59:18;;;;;;;14.48;12.57;;;;;;;28.35;50.20;101276.69;5014187;28;20513;-66
2023/08/24 09:01:45;;;;;;;13.82;10.60;;;;;;;28.72;50.61;101270.78;5014084;28;20026;-66
2023/08/24 09:04:11;;;;;;;14.00;11.13;;;;;;;28.87;50.01;101265.50;5006847;28;20105;-66
2023/08/24 09:06:36;;;;;;;12.65;10.73;;;;;;;29.00;49.34;101248.66;5011157;28;20136;-66
2023/08/24 09:09:05;;;;;;;10.98;8.95;;;;;;;29.33;49.04;101243.16;5003205;28;20092;-66
2023/08/24 09:11:30;;;;;;;11.85;9.85;;;;;;;29.65;48.23;101228.59;5005895;28;20028;-67
2023/08/24 09:13:56;;;;;;;13.52;12.07;;;;;;;29.86;47.71;101234.28;5009450;28;20093;-67
2023/08/24 09:16:21;;;;;;;14.52;12.02;;;;;;;29.80;48.57;101226.84;5007689;28;20045;-67
2023/08/24 09:18:47;;;;;;;17.83;10.60;;;;;;;29.87;47.70;101221.50;5012958;28;20038;-67
2023/08/24 09:21:15;;;;;;;16.80;11.52;;;;;;;30.08;47.50;101219.00;5001890;28;20034;-67
2023/08/24 09:24:00;;;;;;;15.27;10.90;;;;;;;30.15;47.88;101213.72;5000203;28;20030;-68
2023/08/24 09:26:30;;;;;;;18.33;11.38;;;;;;;30.11;47.03;101205.00;4999459;28;20042;-67
2023/08/24 09:28:55;;;;;;;12.73;10.68;;;;;;;30.25;46.48;101200.69;5001758;28;20116;-67
2023/08/24 09:31:21;;;;;;;12.00;10.63;;;;;;;30.30;46.29;101205.59;5004580;28;20026;-67
2023/08/24 09:33:47;;;;;;;12.50;10.05;;;;;;;30.30;47.38;101205.59;5008891;28;20029;-68
2023/08/24 09:36:14;;;;;;;15.10;10.80;;;;;;;29.91;47.04;101212.78;5006440;28;20065;-68
2023/08/24 09:38:47;;;;;;;14.02;10.02;;;;;;;30.14;47.47;101220.19;5004799;28;20022;-68
2023/08/24 09:41:13;;;;;;;13.23;9.45;;;;;;;30.32;47.27;101231.66;5006156;28;20033;-68
2023/08/24 09:43:38;;;;;;;15.73;10.48;;;;;;;30.32;46.79;101242.59;5004357;28;20030;-68
2023/08/24 09:46:04;;;;;;;10.63;9.53;;;;;;;30.40;46.60;101263.47;5002110;28;20025;-68
2023/08/24 09:48:30;;;;;;;15.77;10.00;;;;;;;30.41;45.09;101262.47;5001860;28;20292;-68
2023/08/24 09:50:56;;;;;;;10.80;9.18;;;;;;;30.22;47.24;101269.25;5005074;28;20780;-68
2023/08/24 09:53:23;;;;;;;13.13;7.93;;;;;;;30.33;47.10;101270.72;5011163;28;20437;-68
2023/08/24 09:55:58;;;;;;;12.82;8.85;;;;;;;30.08;47.61;101261.78;5011891;28;20029;-68
2023/08/24 09:58:24;;;;;;;8.57;7.35;;;;;;;30.15;47.44;101265.53;5008101;28;20652;-68
2023/08/24 10:00:50;;;;;;;11.63;7.72;;;;;;;29.77;46.11;101267.22;5002611;28;20030;-68
2023/08/24 10:03:20;;;;;;;10.32;7.22;;;;;;;29.67;46.97;101259.25;5018723;28;20667;-68
2023/08/24 10:05:49;;;;;;;11.05;7.88;;;;;;;29.34;49.39;101259.34;5012191;28;20119;-68
2023/08/24 10:08:17;;;;;;;12.05;7.72;;;;;;;29.31;49.33;101265.13;5019397;28;20042;-68
2023/08/24 10:10:43;;;;;;;12.25;6.63;;;;;;;29.38;48.16;101270.75;5011561;28;20057;-68
2023/08/24 10:13:17;;;;;;;8.25;6.78;;;;;;;29.38;49.31;101276.19;5010700;28;20233;-68
2023/08/24 10:15:46;;;;;;;8.95;6.90;;;;;;;29.33;50.20;101278.56;5005459;28;20473;-67
2023/08/24 10:18:13;;;;;;;8.32;6.18;;;;;;;29.21;49.13;101281.66;5003244;28;20057;-67
2023/08/24 10:20:39;;;;;;;10.75;6.18;;;;;;;28.94;49.98;101280.09;4980669;28;20033;-67
2023/08/24 10:23:04;;;;;;;8.70;7.22;;;;;;;28.79;48.89;101276.38;5013241;28;20032;-66
2023/08/24 10:25:30;;;;;;;12.00;7.53;;;;;;;28.77;50.49;101272.97;5007957;28;20045;-67
2023/08/24 10:27:56;;;;;;;7.22;6.50;;;;;;;28.73;49.64;101268.91;5005555;28;20509;-66
2023/08/24 10:30:23;;;;;;;15.48;7.70;;;;;;;28.64;50.67;101267.19;5000383;28;20042;-67
2023/08/24 10:32:52;;;;;;;11.88;7.28;;;;;;;28.63;52.03;101262.75;5000215;28;20088;-66
2023/08/24 10:35:19;;;;;;;10.07;7.50;;;;;;;28.56;52.73;101269.91;5004429;28;20022;-66
2023/08/24 10:37:46;;;;;;;8.80;6.90;;;;;;;28.47;53.27;101286.22;5002329;28;20518;-66
2023/08/24 10:40:12;;;;;;;8.20;6.78;;;;;;;28.32;53.17;101287.00;5000992;28;20022;-66
2023/08/24 10:42:45;;;;;;;10.57;7.68;;;;;;;28.21;53.21;101283.59;5008775;28;20489;-66
2023/08/24 10:45:13;;;;;;;15.10;8.15;;;;;;;28.14;53.97;101287.97;5004748;28;20636;-67
2023/08/24 10:47:45;;;;;;;10.00;7.97;;;;;;;28.12;54.63;101291.84;5004051;28;20095;-67
2023/08/24 10:50:11;;;;;;;14.55;8.48;;;;;;;28.08;54.83;101296.78;5003433;28;20038;-66
2023/08/24 10:52:39;;;;;;;11.55;8.35;;;;;;;27.92;53.34;101288.56;4999553;28;20117;-67
2023/08/24 10:55:21;;;;;;;12.20;8.02;;;;;;;27.80;54.39;101290.75;5009843;28;20504;-66
2023/08/24 10:57:55;;;;;;;7.05;6.35;;;;;;;27.76;55.35;101285.78;5004126;28;20394;-66
2023/08/24 11:00:22;;;;;;;8.32;5.45;;;;;;;27.64;52.19;101275.16;5012771;28;20092;-66
2023/08/24 11:02:51;;;;;;;8.80;5.35;;;;;;;27.53;52.43;101272.75;5001573;28;20041;-66
2023/08/24 11:05:31;;;;;;;7.10;4.90;;;;;;;27.53;51.95;101266.47;5006529;28;20784;-66
2023/08/24 11:07:59;;;;;;;9.80;5.53;;;;;;;27.53;51.89;101261.03;5009536;28;20035;-66
2023/08/24 11:10:31;;;;;;;8.98;5.20;;;;;;;27.54;52.45;101273.59;5008149;28;20030;-66
2023/08/24 11:13:07;;;;;;;9.65;5.53;;;;;;;27.71;53.25;101275.38;5007014;28;20029;-66